createdAt,value
2018-06-20T00:00:21.684Z,74.77
2018-06-20T00:01:21.674Z,74.87
2018-06-20T00:02:21.660Z,74.87
2018-06-20T00:03:21.654Z,75.06
2018-06-20T00:04:21.646Z,74.77
2018-06-20T00:05:21.640Z,74.77
2018-06-20T00:06:21.636Z,74.26
2018-06-20T00:07:21.666Z,74.73
2018-06-20T00:08:21.615Z,74.16
2018-06-20T00:09:21.605Z,73.97
2018-06-20T00:10:21.599Z,74.26
2018-06-20T00:11:21.587Z,74.06
2018-06-20T00:12:21.579Z,74.26
2018-06-20T00:13:21.575Z,74.06
2018-06-20T00:14:21.561Z,74.35
2018-06-20T00:15:21.557Z,74.35
2018-06-20T00:16:21.548Z,74.16
2018-06-20T00:17:21.536Z,74.26
2018-06-20T00:18:21.527Z,73.87
2018-06-20T00:19:21.522Z,74.06
2018-06-20T00:20:21.516Z,74.16
2018-06-20T00:21:21.508Z,74.93
2018-06-20T00:22:21.500Z,74.83
2018-06-20T00:23:21.489Z,74.73
2018-06-20T00:24:21.479Z,74.44
2018-06-20T00:25:21.469Z,74.73
2018-06-20T00:26:21.462Z,74.64
2018-06-20T00:27:21.462Z,74.54
2018-06-20T00:28:21.448Z,74.54
2018-06-20T00:29:21.440Z,74.73
2018-06-20T00:30:21.430Z,75.12
2018-06-20T00:31:21.422Z,74.83
2018-06-20T00:32:21.411Z,74.73
2018-06-20T00:33:21.405Z,74.73
2018-06-20T00:34:21.399Z,74.73
2018-06-20T00:35:21.386Z,74.93
2018-06-20T00:36:21.378Z,75.50
2018-06-20T00:37:21.368Z,75.50
2018-06-20T00:38:21.360Z,75.31
2018-06-20T00:39:21.363Z,75.31
2018-06-20T00:40:21.341Z,75.12
2018-06-20T00:41:21.333Z,75.21
2018-06-20T00:42:21.327Z,74.54
2018-06-20T00:43:21.321Z,75.21
2018-06-20T00:44:21.315Z,75.02
2018-06-20T00:45:21.301Z,74.83
2018-06-20T00:46:21.295Z,75.40
2018-06-20T00:47:21.287Z,75.12
2018-06-20T00:48:21.280Z,75.40
2018-06-20T00:49:21.272Z,75.31
2018-06-20T00:50:21.260Z,75.46
2018-06-20T00:51:21.252Z,74.73
2018-06-20T00:52:21.250Z,74.41
2018-06-20T00:53:21.232Z,74.98
2018-06-20T00:54:21.250Z,74.79
2018-06-20T00:55:21.222Z,74.93
2018-06-20T00:56:21.210Z,74.60
2018-06-20T00:57:21.204Z,74.98
2018-06-20T00:58:21.193Z,74.79
2018-06-20T00:59:21.175Z,74.69
2018-06-20T01:00:21.175Z,74.89
2018-06-20T01:01:21.163Z,74.98
2018-06-20T01:02:21.161Z,74.60
2018-06-20T01:03:21.147Z,74.51
2018-06-20T01:04:21.142Z,74.31
2018-06-20T01:05:21.136Z,74.12
2018-06-20T01:06:21.129Z,74.02
2018-06-20T01:07:21.114Z,73.93
2018-06-20T01:08:21.101Z,73.93
2018-06-20T01:09:21.097Z,74.12
2018-06-20T01:10:21.097Z,74.41
2018-06-20T01:11:21.079Z,73.83
2018-06-20T01:12:21.072Z,74.31
2018-06-20T01:13:21.074Z,74.02
2018-06-20T01:14:21.060Z,73.93
2018-06-20T01:15:21.048Z,73.74
2018-06-20T01:16:21.037Z,74.41
2018-06-20T01:17:21.024Z,73.83
2018-06-20T01:18:21.019Z,74.31
2018-06-20T01:19:21.013Z,74.22
2018-06-20T01:20:21.001Z,74.69
2018-06-20T01:21:20.992Z,74.51
2018-06-20T01:22:20.981Z,74.69
2018-06-20T01:23:20.980Z,74.31
2018-06-20T01:24:20.970Z,74.98
2018-06-20T01:25:20.956Z,74.60
2018-06-20T01:26:20.946Z,74.22
2018-06-20T01:27:20.940Z,74.31
2018-06-20T01:28:20.940Z,74.31
2018-06-20T01:29:20.926Z,74.12
2018-06-20T01:30:20.915Z,74.22
2018-06-20T01:31:20.909Z,74.69
2018-06-20T01:32:20.898Z,74.79
2018-06-20T01:33:20.888Z,74.69
2018-06-20T01:34:20.882Z,74.98
2018-06-20T01:35:20.871Z,74.89
2018-06-20T01:36:20.867Z,74.79
2018-06-20T01:37:20.856Z,74.60
2018-06-20T01:38:20.846Z,74.22
2018-06-20T01:39:20.836Z,73.93
2018-06-20T01:40:20.832Z,73.93
2018-06-20T01:41:20.819Z,74.12
2018-06-20T01:42:20.813Z,74.12
2018-06-20T01:43:20.799Z,74.89
2018-06-20T01:44:20.792Z,74.60
2018-06-20T01:45:20.786Z,74.79
2018-06-20T01:46:20.779Z,74.22
2018-06-20T01:47:20.762Z,74.12
2018-06-20T01:48:20.756Z,73.93
2018-06-20T01:49:20.750Z,73.93
2018-06-20T01:50:20.738Z,74.22
2018-06-20T01:51:20.732Z,73.74
2018-06-20T01:52:20.725Z,73.74
2018-06-20T01:53:20.713Z,73.83
2018-06-20T01:54:20.704Z,73.74
2018-06-20T01:55:20.693Z,73.83
2018-06-20T01:56:20.689Z,73.83
2018-06-20T01:57:20.677Z,73.65
2018-06-20T01:58:20.669Z,74.02
2018-06-20T01:59:20.659Z,73.83
2018-06-20T02:00:20.656Z,73.83
2018-06-20T02:01:20.646Z,73.74
2018-06-20T02:02:20.634Z,73.74
2018-06-20T02:03:20.622Z,73.74
2018-06-20T02:04:20.614Z,74.37
2018-06-20T02:05:20.609Z,74.02
2018-06-20T02:06:20.598Z,73.70
2018-06-20T02:07:20.584Z,73.90
2018-06-20T02:08:20.576Z,74.22
2018-06-20T02:09:20.574Z,73.99
2018-06-20T02:10:20.566Z,73.99
2018-06-20T02:11:20.553Z,74.27
2018-06-20T02:12:20.540Z,74.18
2018-06-20T02:13:20.534Z,74.47
2018-06-20T02:14:20.522Z,74.57
2018-06-20T02:15:20.515Z,74.95
2018-06-20T02:16:20.509Z,75.14
2018-06-20T02:17:20.503Z,75.23
2018-06-20T02:18:20.493Z,75.04
2018-06-20T02:19:20.484Z,74.47
2018-06-20T02:20:20.477Z,74.85
2018-06-20T02:21:20.462Z,74.66
2018-06-20T02:22:20.454Z,74.66
2018-06-20T02:23:20.449Z,74.85
2018-06-20T02:24:20.434Z,75.23
2018-06-20T02:25:20.424Z,74.66
2018-06-20T02:26:20.418Z,74.57
2018-06-20T02:27:20.408Z,74.47
2018-06-20T02:28:20.396Z,74.47
2018-06-20T02:29:20.391Z,74.47
2018-06-20T02:30:20.401Z,74.57
2018-06-20T02:31:20.376Z,74.66
2018-06-20T02:32:20.372Z,73.80
2018-06-20T02:33:20.354Z,73.70
2018-06-20T02:34:20.346Z,74.57
2018-06-20T02:35:20.338Z,74.27
2018-06-20T02:36:20.327Z,74.85
2018-06-20T02:37:20.321Z,74.76
2018-06-20T02:38:20.308Z,74.66
2018-06-20T02:39:20.302Z,74.95
2018-06-20T02:40:20.296Z,74.57
2018-06-20T02:41:20.285Z,74.76
2018-06-20T02:42:20.273Z,75.14
2018-06-20T02:43:20.260Z,75.23
2018-06-20T02:44:20.257Z,75.43
2018-06-20T02:45:20.245Z,75.81
2018-06-20T02:46:20.237Z,75.33
2018-06-20T02:47:20.224Z,74.85
2018-06-20T02:48:20.220Z,75.81
2018-06-20T02:49:20.209Z,75.71
2018-06-20T02:50:20.198Z,76.00
2018-06-20T02:51:20.191Z,76.29
2018-06-20T02:52:20.180Z,75.71
2018-06-20T02:53:20.170Z,76.00
2018-06-20T02:54:20.164Z,75.39
2018-06-20T02:55:20.153Z,75.96
2018-06-20T02:56:20.155Z,75.81
2018-06-20T02:57:20.135Z,75.71
2018-06-20T02:58:20.125Z,76.06
2018-06-20T02:59:20.123Z,75.58
2018-06-20T03:00:20.107Z,75.68
2018-06-20T03:01:20.095Z,75.58
2018-06-20T03:02:20.091Z,75.14
2018-06-20T03:03:20.077Z,75.33
2018-06-20T03:04:20.070Z,75.62
2018-06-20T03:05:20.063Z,75.52
2018-06-20T03:06:20.053Z,75.14
2018-06-20T03:07:20.036Z,75.43
2018-06-20T03:08:20.036Z,75.14
2018-06-20T03:09:20.024Z,75.71
2018-06-20T03:10:20.014Z,75.33
2018-06-20T03:11:20.007Z,75.62
2018-06-20T03:12:20.001Z,75.23
2018-06-20T03:13:19.987Z,74.95
2018-06-20T03:14:19.982Z,74.66
2018-06-20T03:15:19.970Z,74.37
2018-06-20T03:16:19.963Z,74.18
2018-06-20T03:17:19.950Z,74.27
2018-06-20T03:18:19.940Z,75.14
2018-06-20T03:19:19.933Z,74.47
2018-06-20T03:20:19.944Z,74.57
2018-06-20T03:21:19.917Z,73.76
2018-06-20T03:22:19.905Z,73.86
2018-06-20T03:23:19.899Z,73.86
2018-06-20T03:24:19.885Z,74.33
2018-06-20T03:25:19.884Z,74.24
2018-06-20T03:26:19.873Z,74.57
2018-06-20T03:27:19.924Z,74.57
2018-06-20T03:28:19.850Z,74.57
2018-06-20T03:29:19.837Z,74.76
2018-06-20T03:30:19.833Z,74.85
2018-06-20T03:31:19.822Z,74.33
2018-06-20T03:32:19.816Z,74.57
2018-06-20T03:33:19.805Z,74.95
2018-06-20T03:34:19.798Z,75.01
2018-06-20T03:35:19.785Z,74.91
2018-06-20T03:36:19.779Z,74.82
2018-06-20T03:37:19.767Z,75.14
2018-06-20T03:38:19.757Z,75.23
2018-06-20T03:39:19.749Z,74.66
2018-06-20T03:40:19.743Z,74.66
2018-06-20T03:41:19.737Z,74.47
2018-06-20T03:42:19.724Z,74.76
2018-06-20T03:43:19.710Z,74.76
2018-06-20T03:44:19.702Z,74.76
2018-06-20T03:45:19.695Z,75.23
2018-06-20T03:46:19.692Z,74.76
2018-06-20T03:47:19.675Z,74.57
2018-06-20T03:48:19.663Z,74.57
2018-06-20T03:49:19.661Z,74.76
2018-06-20T03:50:19.648Z,74.76
2018-06-20T03:51:19.646Z,74.95
2018-06-20T03:52:19.627Z,74.76
2018-06-20T03:53:19.616Z,74.66
2018-06-20T03:54:19.611Z,74.37
2018-06-20T03:55:19.602Z,73.80
2018-06-20T03:56:19.591Z,73.90
2018-06-20T03:57:19.591Z,73.70
2018-06-20T03:58:19.575Z,74.08
2018-06-20T03:59:19.558Z,73.99
2018-06-20T04:00:19.559Z,73.99
2018-06-20T04:01:19.544Z,74.18
2018-06-20T04:02:19.563Z,74.18
2018-06-20T04:03:19.528Z,73.80
2018-06-20T04:04:19.516Z,74.27
2018-06-20T04:05:19.506Z,73.99
2018-06-20T04:06:19.497Z,74.18
2018-06-20T04:07:19.491Z,73.90
2018-06-20T04:08:19.483Z,73.22
2018-06-20T04:09:19.468Z,72.74
2018-06-20T04:10:19.473Z,73.32
2018-06-20T04:11:19.451Z,73.41
2018-06-20T04:12:19.441Z,73.32
2018-06-20T04:13:19.436Z,72.94
2018-06-20T04:14:19.423Z,73.13
2018-06-20T04:15:19.415Z,73.13
2018-06-20T04:16:19.407Z,72.94
2018-06-20T04:17:19.396Z,73.13
2018-06-20T04:18:19.412Z,72.64
2018-06-20T04:19:19.378Z,73.61
2018-06-20T04:20:19.368Z,73.41
2018-06-20T04:21:19.363Z,73.22
2018-06-20T04:22:19.349Z,72.94
2018-06-20T04:23:19.343Z,72.36
2018-06-20T04:24:19.334Z,73.32
2018-06-20T04:25:19.323Z,74.18
2018-06-20T04:26:19.316Z,73.99
2018-06-20T04:27:19.320Z,73.80
2018-06-20T04:28:19.299Z,73.90
2018-06-20T04:29:19.285Z,73.90
2018-06-20T04:30:19.277Z,74.08
2018-06-20T04:31:19.268Z,74.08
2018-06-20T04:32:19.258Z,74.27
2018-06-20T04:33:19.252Z,73.90
2018-06-20T04:34:19.241Z,74.72
2018-06-20T04:35:19.234Z,73.13
2018-06-20T04:36:19.225Z,71.84
2018-06-20T04:37:19.212Z,72.36
2018-06-20T04:38:19.206Z,72.17
2018-06-20T04:39:19.193Z,72.17
2018-06-20T04:40:19.186Z,73.13
2018-06-20T04:41:19.175Z,73.09
2018-06-20T04:42:19.171Z,72.64
2018-06-20T04:43:19.157Z,73.32
2018-06-20T04:44:19.155Z,73.80
2018-06-20T04:45:19.139Z,72.94
2018-06-20T04:46:19.132Z,72.84
2018-06-20T04:47:19.118Z,73.13
2018-06-20T04:48:19.114Z,73.90
2018-06-20T04:49:19.100Z,73.03
2018-06-20T04:50:19.088Z,73.22
2018-06-20T04:51:19.084Z,73.90
2018-06-20T04:52:19.076Z,73.32
2018-06-20T04:53:19.070Z,73.22
2018-06-20T04:54:19.057Z,73.32
2018-06-20T04:55:19.044Z,73.32
2018-06-20T04:56:19.035Z,73.32
2018-06-20T04:57:19.025Z,73.22
2018-06-20T04:58:19.019Z,73.70
2018-06-20T04:59:19.009Z,73.70
2018-06-20T05:00:19.000Z,73.22
2018-06-20T05:01:18.994Z,73.28
2018-06-20T05:02:18.989Z,73.57
2018-06-20T05:03:18.971Z,73.95
2018-06-20T05:04:18.996Z,74.52
2018-06-20T05:05:18.948Z,75.10
2018-06-20T05:06:18.945Z,75.96
2018-06-20T05:07:18.937Z,76.06
2018-06-20T05:08:18.925Z,75.87
2018-06-20T05:09:18.918Z,75.77
2018-06-20T05:10:18.913Z,75.48
2018-06-20T05:11:18.902Z,75.77
2018-06-20T05:12:18.891Z,75.68
2018-06-20T05:13:18.880Z,75.87
2018-06-20T05:14:18.873Z,75.87
2018-06-20T05:15:18.859Z,74.62
2018-06-20T05:16:18.855Z,74.52
2018-06-20T05:17:18.843Z,73.86
2018-06-20T05:18:18.835Z,74.72
2018-06-20T05:19:18.818Z,75.10
2018-06-20T05:20:18.826Z,74.91
2018-06-20T05:21:18.806Z,75.87
2018-06-20T05:22:18.801Z,76.25
2018-06-20T05:23:18.787Z,76.06
2018-06-20T05:24:18.774Z,76.00
2018-06-20T05:25:18.769Z,75.62
2018-06-20T05:26:18.759Z,75.62
2018-06-20T05:27:18.747Z,75.58
2018-06-20T05:28:18.742Z,75.62
2018-06-20T05:29:18.732Z,75.43
2018-06-20T05:30:18.722Z,74.47
2018-06-20T05:31:18.714Z,73.99
2018-06-20T05:32:18.703Z,74.24
2018-06-20T05:33:18.703Z,74.24
2018-06-20T05:34:18.689Z,74.76
2018-06-20T05:35:18.673Z,74.57
2018-06-20T05:36:18.667Z,74.57
2018-06-20T05:37:18.664Z,75.14
2018-06-20T05:38:18.645Z,75.71
2018-06-20T05:39:18.635Z,75.58
2018-06-20T05:40:18.629Z,75.71
2018-06-20T05:41:18.625Z,75.62
2018-06-20T05:42:18.609Z,75.23
2018-06-20T05:43:18.607Z,75.52
2018-06-20T05:44:18.593Z,75.14
2018-06-20T05:45:18.583Z,75.23
2018-06-20T05:46:18.580Z,75.33
2018-06-20T05:47:18.565Z,75.52
2018-06-20T05:48:18.562Z,75.43
2018-06-20T05:49:18.553Z,75.23
2018-06-20T05:50:18.537Z,75.33
2018-06-20T05:51:18.526Z,75.14
2018-06-20T05:52:18.522Z,74.37
2018-06-20T05:53:18.505Z,73.99
2018-06-20T05:54:18.505Z,74.18
2018-06-20T05:55:18.490Z,74.08
2018-06-20T05:56:18.483Z,74.27
2018-06-20T05:57:18.508Z,73.90
2018-06-20T05:58:18.462Z,73.41
2018-06-20T05:59:18.448Z,72.84
2018-06-20T06:00:18.450Z,73.03
2018-06-20T06:01:18.441Z,73.55
2018-06-20T06:02:18.427Z,73.35
2018-06-20T06:03:18.417Z,73.26
2018-06-20T06:04:18.409Z,73.07
2018-06-20T06:05:18.500Z,73.00
2018-06-20T06:06:18.394Z,72.14
2018-06-20T06:07:18.383Z,72.05
2018-06-20T06:08:18.372Z,72.43
2018-06-20T06:09:18.361Z,72.05
2018-06-20T06:10:18.357Z,71.61
2018-06-20T06:11:18.352Z,71.80
2018-06-20T06:12:18.333Z,71.89
2018-06-20T06:13:18.334Z,71.51
2018-06-20T06:14:18.318Z,71.70
2018-06-20T06:15:18.317Z,71.16
2018-06-20T06:16:18.310Z,70.29
2018-06-20T06:17:18.294Z,70.39
2018-06-20T06:18:18.287Z,70.39
2018-06-20T06:19:18.273Z,69.81
2018-06-20T06:20:18.268Z,69.81
2018-06-20T06:21:18.258Z,68.85
2018-06-20T06:22:18.253Z,68.31
2018-06-20T06:23:18.275Z,68.41
2018-06-20T06:24:18.236Z,68.60
2018-06-20T06:25:18.229Z,68.51
2018-06-20T06:26:18.211Z,69.18
2018-06-20T06:27:18.207Z,68.73
2018-06-20T06:28:18.202Z,68.54
2018-06-20T06:29:18.194Z,68.35
2018-06-20T06:30:18.186Z,67.29
2018-06-20T06:31:18.173Z,67.58
2018-06-20T06:32:18.167Z,68.35
2018-06-20T06:33:18.157Z,68.63
2018-06-20T06:34:18.145Z,68.19
2018-06-20T06:35:18.142Z,68.19
2018-06-20T06:36:18.137Z,67.51
2018-06-20T06:37:18.123Z,66.94
2018-06-20T06:38:18.119Z,65.88
2018-06-20T06:39:18.106Z,65.97
2018-06-20T06:40:18.100Z,66.27
2018-06-20T06:41:18.096Z,66.20
2018-06-20T06:42:18.089Z,66.10
2018-06-20T06:43:18.076Z,66.20
2018-06-20T06:44:18.074Z,66.01
2018-06-20T06:45:18.058Z,66.30
2018-06-20T06:46:18.052Z,65.91
2018-06-20T06:47:18.044Z,65.91
2018-06-20T06:48:18.037Z,66.20
2018-06-20T06:49:18.030Z,66.20
2018-06-20T06:50:18.024Z,66.01
2018-06-20T06:51:18.013Z,65.72
2018-06-20T06:52:18.010Z,65.91
2018-06-20T06:53:18.001Z,65.94
2018-06-20T06:54:17.991Z,66.01
2018-06-20T06:55:17.984Z,66.24
2018-06-20T06:56:17.982Z,66.14
2018-06-20T06:57:17.968Z,66.42
2018-06-20T06:58:17.960Z,65.94
2018-06-20T06:59:17.954Z,65.75
2018-06-20T07:00:17.949Z,65.27
2018-06-20T07:01:17.939Z,64.98
2018-06-20T07:02:17.935Z,65.17
2018-06-20T07:03:17.922Z,65.11
2018-06-20T07:04:17.920Z,65.30
2018-06-20T07:05:17.909Z,65.40
2018-06-20T07:06:17.900Z,65.11
2018-06-20T07:07:17.896Z,64.53
2018-06-20T07:08:17.883Z,64.25
2018-06-20T07:09:17.890Z,64.63
2018-06-20T07:10:17.872Z,64.25
2018-06-20T07:11:17.861Z,63.85
2018-06-20T07:12:17.853Z,64.18
2018-06-20T07:13:17.849Z,63.41
2018-06-20T07:14:17.851Z,63.50
2018-06-20T07:15:17.839Z,62.83
2018-06-20T07:16:17.823Z,62.45
2018-06-20T07:17:17.819Z,62.73
2018-06-20T07:18:17.813Z,62.54
2018-06-20T07:19:17.808Z,62.45
2018-06-20T07:20:17.800Z,64.28
2018-06-20T07:21:17.794Z,63.82
2018-06-20T07:22:17.788Z,63.70
2018-06-20T07:23:17.777Z,63.54
2018-06-20T07:24:17.838Z,65.37
2018-06-20T07:25:17.767Z,64.31
2018-06-20T07:26:17.760Z,64.02
2018-06-20T07:27:17.755Z,61.51
2018-06-20T07:28:17.745Z,61.61
2018-06-20T07:29:17.806Z,60.35
2018-06-20T07:30:17.733Z,59.87
2018-06-20T07:31:17.720Z,59.42
2018-06-20T07:32:17.713Z,58.33
2018-06-20T07:33:17.706Z,57.87
2018-06-20T07:34:17.706Z,57.97
2018-06-20T07:35:17.696Z,58.17
2018-06-20T07:36:17.803Z,57.01
2018-06-20T07:37:17.686Z,57.78
2018-06-20T07:38:17.681Z,57.10
2018-06-20T07:39:17.667Z,56.04
2018-06-20T07:40:17.665Z,56.04
2018-06-20T07:41:17.659Z,55.49
2018-06-20T07:42:17.649Z,55.27
2018-06-20T07:43:17.645Z,56.26
2018-06-20T07:44:17.635Z,57.52
2018-06-20T07:45:17.633Z,57.39
2018-06-20T07:46:17.631Z,57.81
2018-06-20T07:47:17.624Z,57.14
2018-06-20T07:48:17.615Z,55.78
2018-06-20T07:49:17.605Z,54.91
2018-06-20T07:50:17.597Z,53.95
2018-06-20T07:51:17.591Z,53.47
2018-06-20T07:52:17.588Z,56.16
2018-06-20T07:53:17.579Z,57.42
2018-06-20T07:54:17.575Z,56.74
2018-06-20T07:55:17.564Z,56.16
2018-06-20T07:56:17.559Z,57.90
2018-06-20T07:57:17.557Z,58.39
2018-06-20T07:58:17.553Z,58.19
2018-06-20T07:59:17.546Z,57.81
2018-06-20T08:00:17.538Z,55.78
2018-06-20T08:01:17.531Z,55.42
2018-06-20T08:02:17.524Z,55.13
2018-06-20T08:03:17.515Z,56.29
2018-06-20T08:04:17.517Z,57.64
2018-06-20T08:05:17.505Z,57.06
2018-06-20T08:06:17.559Z,60.64
2018-06-20T08:07:17.502Z,59.67
2018-06-20T08:08:17.484Z,59.89
2018-06-20T08:09:17.482Z,59.12
2018-06-20T08:10:17.474Z,58.06
2018-06-20T08:11:17.462Z,55.83
2018-06-20T08:12:17.468Z,55.45
2018-06-20T08:13:17.459Z,54.29
2018-06-20T08:14:17.450Z,54.19
2018-06-20T08:15:17.446Z,54.68
2018-06-20T08:16:17.437Z,54.58
2018-06-20T08:17:17.436Z,53.78
2018-06-20T08:18:17.424Z,53.01
2018-06-20T08:19:17.421Z,53.03
2018-06-20T08:20:17.412Z,53.11
2018-06-20T08:21:17.409Z,52.43
2018-06-20T08:22:17.408Z,51.85
2018-06-20T08:23:17.396Z,51.07
2018-06-20T08:24:17.394Z,52.14
2018-06-20T08:25:17.386Z,51.46
2018-06-20T08:26:17.378Z,50.79
2018-06-20T08:27:17.372Z,52.14
2018-06-20T08:28:17.366Z,52.04
2018-06-20T08:29:17.370Z,51.95
2018-06-20T08:30:17.358Z,52.04
2018-06-20T08:31:17.347Z,52.43
2018-06-20T08:32:17.343Z,51.95
2018-06-20T08:33:17.339Z,54.65
2018-06-20T08:34:17.331Z,54.46
2018-06-20T08:35:17.326Z,53.11
2018-06-20T08:36:17.316Z,54.17
2018-06-20T08:37:17.321Z,54.97
2018-06-20T08:38:17.308Z,54.00
2018-06-20T08:39:17.296Z,54.29
2018-06-20T08:40:17.299Z,54.97
2018-06-20T08:41:17.289Z,55.45
2018-06-20T08:42:17.281Z,55.07
2018-06-20T08:43:17.277Z,55.45
2018-06-20T08:44:17.273Z,55.74
2018-06-20T08:45:17.265Z,55.35
2018-06-20T08:46:17.259Z,55.26
2018-06-20T08:47:17.258Z,54.29
2018-06-20T08:48:17.252Z,52.55
2018-06-20T08:49:17.243Z,52.84
2018-06-20T08:50:17.236Z,51.49
2018-06-20T08:51:17.234Z,50.71
2018-06-20T08:52:17.224Z,51.20
2018-06-20T08:53:17.222Z,52.84
2018-06-20T08:54:17.216Z,53.23
2018-06-20T08:55:17.211Z,55.96
2018-06-20T08:56:17.199Z,57.31
2018-06-20T08:57:17.199Z,54.22
2018-06-20T08:58:17.189Z,53.74
2018-06-20T08:59:17.181Z,51.97
2018-06-20T09:00:17.178Z,51.51
2018-06-20T09:01:17.172Z,51.51
2018-06-20T09:02:17.167Z,51.81
2018-06-20T09:03:17.172Z,51.03
2018-06-20T09:04:17.160Z,49.49
2018-06-20T09:05:17.164Z,49.77
2018-06-20T09:06:17.156Z,48.32
2018-06-20T09:07:17.139Z,47.94
2018-06-20T09:08:17.136Z,48.71
2018-06-20T09:09:17.133Z,50.07
2018-06-20T09:10:17.121Z,50.26
2018-06-20T09:11:17.120Z,49.39
2018-06-20T09:12:17.112Z,49.10
2018-06-20T09:13:17.106Z,50.07
2018-06-20T09:14:17.137Z,49.10
2018-06-20T09:15:17.097Z,48.90
2018-06-20T09:16:17.090Z,49.29
2018-06-20T09:17:17.088Z,49.87
2018-06-20T09:18:17.078Z,49.32
2018-06-20T09:19:17.075Z,48.74
2018-06-20T09:20:17.067Z,48.93
2018-06-20T09:21:17.065Z,50.67
2018-06-20T09:22:17.059Z,49.90
2018-06-20T09:23:17.051Z,47.96
2018-06-20T09:24:17.045Z,49.22
2018-06-20T09:25:17.041Z,50.67
2018-06-20T09:26:17.036Z,49.32
2018-06-20T09:27:17.033Z,48.16
2018-06-20T09:28:17.024Z,49.05
2018-06-20T09:29:17.025Z,50.60
2018-06-20T09:30:17.018Z,48.44
2018-06-20T09:31:17.012Z,48.47
2018-06-20T09:32:17.002Z,48.27
2018-06-20T09:33:17.002Z,48.76
2018-06-20T09:34:16.985Z,49.32
2018-06-20T09:35:16.989Z,50.50
2018-06-20T09:36:16.983Z,50.57
2018-06-20T09:37:16.977Z,49.80
2018-06-20T09:38:16.975Z,49.82
2018-06-20T09:39:16.972Z,50.21
2018-06-20T09:40:16.960Z,50.50
2018-06-20T09:41:16.956Z,50.60
2018-06-20T09:42:16.949Z,49.92
2018-06-20T09:43:16.945Z,50.02
2018-06-20T09:44:16.939Z,48.57
2018-06-20T09:45:16.927Z,48.57
2018-06-20T09:46:16.923Z,49.44
2018-06-20T09:47:16.923Z,50.12
2018-06-20T09:48:16.921Z,50.21
2018-06-20T09:49:16.911Z,50.60
2018-06-20T09:50:16.912Z,50.31
2018-06-20T09:51:16.900Z,50.12
2018-06-20T09:52:16.894Z,50.24
2018-06-20T09:53:16.891Z,50.92
2018-06-20T09:54:16.939Z,49.95
2018-06-20T09:55:16.879Z,50.72
2018-06-20T09:56:16.877Z,49.95
2018-06-20T09:57:16.870Z,48.97
2018-06-20T09:58:16.870Z,49.65
2018-06-20T09:59:16.863Z,48.88
2018-06-20T10:00:16.859Z,49.85
2018-06-20T10:01:16.853Z,50.52
2018-06-20T10:02:16.884Z,50.52
2018-06-20T10:03:16.839Z,50.52
2018-06-20T10:04:16.839Z,50.82
2018-06-20T10:05:16.829Z,50.24
2018-06-20T10:06:16.829Z,50.45
2018-06-20T10:07:16.820Z,50.33
2018-06-20T10:08:16.816Z,50.45
2018-06-20T10:09:16.812Z,51.32
2018-06-20T10:10:16.812Z,50.84
2018-06-20T10:11:16.843Z,51.04
2018-06-20T10:12:16.792Z,49.58
2018-06-20T10:13:16.813Z,49.19
2018-06-20T10:14:16.792Z,50.26
2018-06-20T10:15:16.782Z,51.23
2018-06-20T10:16:16.775Z,52.29
2018-06-20T10:17:16.777Z,51.90
2018-06-20T10:18:16.768Z,52.49
2018-06-20T10:19:16.759Z,52.00
2018-06-20T10:20:16.773Z,50.94
2018-06-20T10:21:16.833Z,50.35
2018-06-20T10:22:16.762Z,50.16
2018-06-20T10:23:16.746Z,50.48
2018-06-20T10:24:16.741Z,50.26
2018-06-20T10:25:16.731Z,49.58
2018-06-20T10:26:16.726Z,48.71
2018-06-20T10:27:16.723Z,48.71
2018-06-20T10:28:16.719Z,48.42
2018-06-20T10:29:16.713Z,49.77
2018-06-20T10:30:16.701Z,50.07
2018-06-20T10:31:16.710Z,50.45
2018-06-20T10:32:16.700Z,51.04
2018-06-20T10:33:16.696Z,51.64
2018-06-20T10:34:16.712Z,51.23
2018-06-20T10:35:16.691Z,51.23
2018-06-20T10:36:16.683Z,50.84
2018-06-20T10:37:16.676Z,51.13
2018-06-20T10:38:16.670Z,51.54
2018-06-20T10:39:16.663Z,52.61
2018-06-20T10:40:16.661Z,51.42
2018-06-20T10:41:16.662Z,51.54
2018-06-20T10:42:16.653Z,51.25
2018-06-20T10:43:16.647Z,51.93
2018-06-20T10:44:16.642Z,50.38
2018-06-20T10:45:16.638Z,50.29
2018-06-20T10:46:16.715Z,50.87
2018-06-20T10:47:16.629Z,50.77
2018-06-20T10:48:16.623Z,49.90
2018-06-20T10:49:16.678Z,50.19
2018-06-20T10:50:16.611Z,49.70
2018-06-20T10:51:16.605Z,49.32
2018-06-20T10:52:16.604Z,49.32
2018-06-20T10:53:16.600Z,50.99
2018-06-20T10:54:16.652Z,50.02
2018-06-20T10:55:16.589Z,49.92
2018-06-20T10:56:16.588Z,49.92
2018-06-20T10:57:16.580Z,50.60
2018-06-20T10:58:16.577Z,48.76
2018-06-20T10:59:16.574Z,47.79
2018-06-20T11:00:16.567Z,48.57
2018-06-20T11:01:16.564Z,48.57
2018-06-20T11:02:16.558Z,47.69
2018-06-20T11:03:16.555Z,48.85
2018-06-20T11:04:16.545Z,50.04
2018-06-20T11:05:16.535Z,49.95
2018-06-20T11:06:16.555Z,47.72
2018-06-20T11:07:16.531Z,48.78
2018-06-20T11:08:16.529Z,49.37
2018-06-20T11:09:16.525Z,49.95
2018-06-20T11:10:16.523Z,49.17
2018-06-20T11:11:16.522Z,49.17
2018-06-20T11:12:16.514Z,48.49
2018-06-20T11:13:16.512Z,49.17
2018-06-20T11:14:16.506Z,49.19
2018-06-20T11:15:16.520Z,47.64
2018-06-20T11:16:16.495Z,47.93
2018-06-20T11:17:16.487Z,48.80
2018-06-20T11:18:16.485Z,46.86
2018-06-20T11:19:16.486Z,47.45
2018-06-20T11:20:16.482Z,47.74
2018-06-20T11:21:16.488Z,49.32
2018-06-20T11:22:16.470Z,49.61
2018-06-20T11:23:16.480Z,48.54
2018-06-20T11:24:16.461Z,46.69
2018-06-20T11:25:16.458Z,48.83
2018-06-20T11:26:16.456Z,47.76
2018-06-20T11:27:16.447Z,48.54
2018-06-20T11:28:16.447Z,46.31
2018-06-20T11:29:16.479Z,45.53
2018-06-20T11:30:16.438Z,45.72
2018-06-20T11:31:16.435Z,47.28
2018-06-20T11:32:16.427Z,48.85
2018-06-20T11:33:16.431Z,46.81
2018-06-20T11:34:16.426Z,45.82
2018-06-20T11:35:16.416Z,47.11
2018-06-20T11:36:16.414Z,45.94
2018-06-20T11:37:16.410Z,47.20
2018-06-20T11:38:16.408Z,47.49
2018-06-20T11:39:16.404Z,46.72
2018-06-20T11:40:16.400Z,45.84
2018-06-20T11:41:16.401Z,47.59
2018-06-20T11:42:16.394Z,46.52
2018-06-20T11:43:16.387Z,46.62
2018-06-20T11:44:16.383Z,45.84
2018-06-20T11:45:16.381Z,45.26
2018-06-20T11:46:16.377Z,45.26
2018-06-20T11:47:16.374Z,45.65
2018-06-20T11:48:16.370Z,45.94
2018-06-20T11:49:16.368Z,45.84
2018-06-20T11:50:16.364Z,45.38
2018-06-20T11:51:16.359Z,44.51
2018-06-20T11:52:16.357Z,43.63
2018-06-20T11:53:16.351Z,43.24
2018-06-20T11:54:16.353Z,43.63
2018-06-20T11:55:16.347Z,43.15
2018-06-20T11:56:16.343Z,42.85
2018-06-20T11:57:16.339Z,43.73
2018-06-20T11:58:16.354Z,41.98
2018-06-20T11:59:16.330Z,43.95
2018-06-20T12:00:16.328Z,44.04
2018-06-20T12:01:16.326Z,42.58
2018-06-20T12:02:16.320Z,42.19
2018-06-20T12:03:16.318Z,41.13
2018-06-20T12:04:16.316Z,41.61
2018-06-20T12:05:16.316Z,41.69
2018-06-20T12:06:16.312Z,42.68
2018-06-20T12:07:16.303Z,44.24
2018-06-20T12:08:16.303Z,43.65
2018-06-20T12:09:16.299Z,42.58
2018-06-20T12:10:16.291Z,40.73
2018-06-20T12:11:16.295Z,40.64
2018-06-20T12:12:16.289Z,41.69
2018-06-20T12:13:16.283Z,42.49
2018-06-20T12:14:16.283Z,42.19
2018-06-20T12:15:16.274Z,42.10
2018-06-20T12:16:16.282Z,42.10
2018-06-20T12:17:16.276Z,41.22
2018-06-20T12:18:16.270Z,41.01
2018-06-20T12:19:16.265Z,41.96
2018-06-20T12:20:16.266Z,42.64
2018-06-20T12:21:16.261Z,43.40
2018-06-20T12:22:16.257Z,43.30
2018-06-20T12:23:16.256Z,42.43
2018-06-20T12:24:16.252Z,42.33
2018-06-20T12:25:16.250Z,42.64
2018-06-20T12:26:16.250Z,42.74
2018-06-20T12:27:16.244Z,42.93
2018-06-20T12:28:16.250Z,42.05
2018-06-20T12:29:16.245Z,42.66
2018-06-20T12:30:16.234Z,42.46
2018-06-20T12:31:16.225Z,41.10
2018-06-20T12:32:16.226Z,42.66
2018-06-20T12:33:16.223Z,41.03
2018-06-20T12:34:16.219Z,40.81
2018-06-20T12:35:16.221Z,40.54
2018-06-20T12:36:16.208Z,40.81
2018-06-20T12:37:16.213Z,41.03
2018-06-20T12:38:16.210Z,42.00
2018-06-20T12:39:16.209Z,40.54
2018-06-20T12:40:16.205Z,39.96
2018-06-20T12:41:16.199Z,41.03
2018-06-20T12:42:16.227Z,39.76
2018-06-20T12:43:16.190Z,39.37
2018-06-20T12:44:16.192Z,39.96
2018-06-20T12:45:16.188Z,39.57
2018-06-20T12:46:16.182Z,38.87
2018-06-20T12:47:16.207Z,40.34
2018-06-20T12:48:16.179Z,40.34
2018-06-20T12:49:16.179Z,38.98
2018-06-20T12:50:16.171Z,38.60
2018-06-20T12:51:16.165Z,39.08
2018-06-20T12:52:16.163Z,39.08